sensor_id;sensor_type;location;lat;lon;timestamp;P1;durP1;ratioP1;P2;durP2;ratioP2
23802;SDS011;12082;51.786;6.018;2023-05-29T00:02:13;61.50;;;57.17;;
23802;SDS011;12082;51.786;6.018;2023-05-29T00:04:38;62.77;;;58.77;;
23802;SDS011;12082;51.786;6.018;2023-05-29T00:07:05;67.73;;;62.97;;
23802;SDS011;12082;51.786;6.018;2023-05-29T00:09:31;72.07;;;67.33;;
23802;SDS011;12082;51.786;6.018;2023-05-29T00:11:56;76.93;;;71.13;;
23802;SDS011;12082;51.786;6.018;2023-05-29T00:14:22;77.27;;;72.03;;
23802;SDS011;12082;51.786;6.018;2023-05-29T00:16:48;80.03;;;75.27;;
23802;SDS011;12082;51.786;6.018;2023-05-29T00:19:15;85.73;;;80.50;;
23802;SDS011;12082;51.786;6.018;2023-05-29T00:21:44;83.87;;;78.63;;
23802;SDS011;12082;51.786;6.018;2023-05-29T00:24:13;82.17;;;77.40;;
23802;SDS011;12082;51.786;6.018;2023-05-29T00:26:42;81.83;;;76.40;;
23802;SDS011;12082;51.786;6.018;2023-05-29T00:29:08;82.07;;;76.47;;
23802;SDS011;12082;51.786;6.018;2023-05-29T00:31:33;81.73;;;75.57;;
23802;SDS011;12082;51.786;6.018;2023-05-29T00:34:00;79.47;;;74.57;;
23802;SDS011;12082;51.786;6.018;2023-05-29T00:36:26;79.03;;;73.90;;
23802;SDS011;12082;51.786;6.018;2023-05-29T00:38:51;80.50;;;75.47;;
23802;SDS011;12082;51.786;6.018;2023-05-29T00:41:17;81.63;;;75.47;;
23802;SDS011;12082;51.786;6.018;2023-05-29T00:43:43;79.20;;;73.83;;
23802;SDS011;12082;51.786;6.018;2023-05-29T00:46:12;80.50;;;75.60;;
23802;SDS011;12082;51.786;6.018;2023-05-29T00:48:38;81.13;;;76.47;;
23802;SDS011;12082;51.786;6.018;2023-05-29T00:51:06;80.47;;;75.93;;
23802;SDS011;12082;51.786;6.018;2023-05-29T00:53:32;83.57;;;78.43;;
23802;SDS011;12082;51.786;6.018;2023-05-29T00:55:58;83.77;;;78.47;;
23802;SDS011;12082;51.786;6.018;2023-05-29T00:58:25;81.93;;;76.47;;
23802;SDS011;12082;51.786;6.018;2023-05-29T01:00:51;80.57;;;75.47;;
23802;SDS011;12082;51.786;6.018;2023-05-29T01:03:17;81.43;;;76.07;;
23802;SDS011;12082;51.786;6.018;2023-05-29T01:05:44;81.17;;;75.93;;
23802;SDS011;12082;51.786;6.018;2023-05-29T01:08:11;80.43;;;75.77;;
23802;SDS011;12082;51.786;6.018;2023-05-29T01:10:37;79.50;;;74.70;;
23802;SDS011;12082;51.786;6.018;2023-05-29T01:13:05;82.60;;;77.27;;
23802;SDS011;12082;51.786;6.018;2023-05-29T01:24:26;81.77;;;76.63;;
23802;SDS011;12082;51.786;6.018;2023-05-29T01:27:05;81.70;;;77.10;;
23802;SDS011;12082;51.786;6.018;2023-05-29T01:29:34;79.17;;;74.30;;
23802;SDS011;12082;51.786;6.018;2023-05-29T01:32:02;78.87;;;73.63;;
23802;SDS011;12082;51.786;6.018;2023-05-29T01:34:29;75.70;;;70.80;;
23802;SDS011;12082;51.786;6.018;2023-05-29T01:36:55;71.90;;;66.53;;
23802;SDS011;12082;51.786;6.018;2023-05-29T01:39:21;69.40;;;64.67;;
23802;SDS011;12082;51.786;6.018;2023-05-29T01:41:47;67.37;;;63.47;;
23802;SDS011;12082;51.786;6.018;2023-05-29T01:44:13;66.13;;;61.97;;
23802;SDS011;12082;51.786;6.018;2023-05-29T01:46:40;67.30;;;63.23;;
23802;SDS011;12082;51.786;6.018;2023-05-29T01:49:06;70.33;;;65.40;;
23802;SDS011;12082;51.786;6.018;2023-05-29T01:51:33;71.00;;;66.90;;
23802;SDS011;12082;51.786;6.018;2023-05-29T01:54:00;72.93;;;68.00;;
23802;SDS011;12082;51.786;6.018;2023-05-29T01:56:26;71.70;;;67.07;;
23802;SDS011;12082;51.786;6.018;2023-05-29T01:58:56;75.30;;;70.83;;
23802;SDS011;12082;51.786;6.018;2023-05-29T02:01:23;78.23;;;72.30;;
23802;SDS011;12082;51.786;6.018;2023-05-29T02:03:49;79.67;;;74.67;;
23802;SDS011;12082;51.786;6.018;2023-05-29T02:06:18;80.83;;;75.73;;
23802;SDS011;12082;51.786;6.018;2023-05-29T02:08:44;77.53;;;72.67;;
23802;SDS011;12082;51.786;6.018;2023-05-29T02:11:10;71.83;;;67.43;;
23802;SDS011;12082;51.786;6.018;2023-05-29T02:13:36;70.10;;;65.37;;
23802;SDS011;12082;51.786;6.018;2023-05-29T02:16:02;67.47;;;62.20;;
23802;SDS011;12082;51.786;6.018;2023-05-29T02:18:28;64.90;;;60.83;;
23802;SDS011;12082;51.786;6.018;2023-05-29T02:20:53;63.23;;;58.70;;
23802;SDS011;12082;51.786;6.018;2023-05-29T02:23:19;64.57;;;59.60;;
23802;SDS011;12082;51.786;6.018;2023-05-29T02:25:45;66.20;;;61.67;;
23802;SDS011;12082;51.786;6.018;2023-05-29T02:28:11;66.17;;;61.60;;
23802;SDS011;12082;51.786;6.018;2023-05-29T02:30:36;64.73;;;60.47;;
23802;SDS011;12082;51.786;6.018;2023-05-29T02:33:03;68.73;;;64.33;;
23802;SDS011;12082;51.786;6.018;2023-05-29T02:35:28;72.07;;;67.40;;
23802;SDS011;12082;51.786;6.018;2023-05-29T02:37:54;78.17;;;73.00;;
23802;SDS011;12082;51.786;6.018;2023-05-29T02:40:20;80.30;;;75.43;;
23802;SDS011;12082;51.786;6.018;2023-05-29T02:42:46;79.77;;;74.43;;
23802;SDS011;12082;51.786;6.018;2023-05-29T02:45:12;77.83;;;71.87;;
23802;SDS011;12082;51.786;6.018;2023-05-29T02:47:38;75.27;;;70.00;;
23802;SDS011;12082;51.786;6.018;2023-05-29T02:50:04;75.07;;;70.47;;
23802;SDS011;12082;51.786;6.018;2023-05-29T02:52:31;73.30;;;67.83;;
23802;SDS011;12082;51.786;6.018;2023-05-29T02:54:57;72.30;;;66.70;;
23802;SDS011;12082;51.786;6.018;2023-05-29T02:57:23;70.77;;;65.60;;
23802;SDS011;12082;51.786;6.018;2023-05-29T02:59:49;70.27;;;65.07;;
23802;SDS011;12082;51.786;6.018;2023-05-29T03:02:16;70.93;;;65.33;;
23802;SDS011;12082;51.786;6.018;2023-05-29T03:04:42;69.67;;;65.17;;
23802;SDS011;12082;51.786;6.018;2023-05-29T03:07:08;68.53;;;63.73;;
23802;SDS011;12082;51.786;6.018;2023-05-29T03:09:34;72.37;;;67.00;;
23802;SDS011;12082;51.786;6.018;2023-05-29T03:12:00;77.37;;;71.93;;
23802;SDS011;12082;51.786;6.018;2023-05-29T03:14:26;75.33;;;69.90;;
23802;SDS011;12082;51.786;6.018;2023-05-29T03:16:52;78.83;;;73.63;;
23802;SDS011;12082;51.786;6.018;2023-05-29T03:19:18;78.63;;;73.10;;
23802;SDS011;12082;51.786;6.018;2023-05-29T03:21:44;75.63;;;70.00;;
23802;SDS011;12082;51.786;6.018;2023-05-29T03:24:10;75.40;;;69.80;;
23802;SDS011;12082;51.786;6.018;2023-05-29T03:26:38;78.17;;;72.80;;
23802;SDS011;12082;51.786;6.018;2023-05-29T03:29:04;80.53;;;74.70;;
23802;SDS011;12082;51.786;6.018;2023-05-29T03:31:30;83.70;;;77.87;;
23802;SDS011;12082;51.786;6.018;2023-05-29T03:33:56;84.17;;;78.43;;
23802;SDS011;12082;51.786;6.018;2023-05-29T03:36:22;83.90;;;78.23;;
23802;SDS011;12082;51.786;6.018;2023-05-29T03:38:47;82.73;;;77.23;;
23802;SDS011;12082;51.786;6.018;2023-05-29T03:41:13;84.03;;;77.43;;
23802;SDS011;12082;51.786;6.018;2023-05-29T03:43:38;85.73;;;79.93;;
23802;SDS011;12082;51.786;6.018;2023-05-29T03:46:04;88.40;;;82.67;;
23802;SDS011;12082;51.786;6.018;2023-05-29T03:48:29;87.50;;;81.87;;
23802;SDS011;12082;51.786;6.018;2023-05-29T03:50:55;87.10;;;81.23;;
23802;SDS011;12082;51.786;6.018;2023-05-29T03:53:20;86.27;;;80.80;;
23802;SDS011;12082;51.786;6.018;2023-05-29T03:55:46;88.33;;;81.17;;
23802;SDS011;12082;51.786;6.018;2023-05-29T03:58:12;87.97;;;81.97;;
23802;SDS011;12082;51.786;6.018;2023-05-29T04:00:39;90.57;;;84.20;;
23802;SDS011;12082;51.786;6.018;2023-05-29T04:03:05;92.17;;;85.93;;
23802;SDS011;12082;51.786;6.018;2023-05-29T04:05:31;88.67;;;81.83;;
23802;SDS011;12082;51.786;6.018;2023-05-29T04:07:56;84.27;;;78.27;;
23802;SDS011;12082;51.786;6.018;2023-05-29T04:10:22;83.97;;;78.27;;
23802;SDS011;12082;51.786;6.018;2023-05-29T04:12:48;83.77;;;78.77;;
23802;SDS011;12082;51.786;6.018;2023-05-29T04:15:14;89.53;;;82.80;;
23802;SDS011;12082;51.786;6.018;2023-05-29T04:17:40;88.67;;;82.27;;
23802;SDS011;12082;51.786;6.018;2023-05-29T04:20:05;89.37;;;83.63;;
23802;SDS011;12082;51.786;6.018;2023-05-29T04:22:36;90.90;;;85.47;;
23802;SDS011;12082;51.786;6.018;2023-05-29T04:25:02;91.83;;;86.13;;
23802;SDS011;12082;51.786;6.018;2023-05-29T04:27:29;92.50;;;86.90;;
23802;SDS011;12082;51.786;6.018;2023-05-29T04:29:56;90.07;;;84.10;;
23802;SDS011;12082;51.786;6.018;2023-05-29T04:32:22;88.03;;;81.93;;
23802;SDS011;12082;51.786;6.018;2023-05-29T04:34:48;83.17;;;77.57;;
23802;SDS011;12082;51.786;6.018;2023-05-29T04:37:14;82.73;;;75.60;;
23802;SDS011;12082;51.786;6.018;2023-05-29T04:39:40;80.80;;;74.63;;
23802;SDS011;12082;51.786;6.018;2023-05-29T04:42:05;79.73;;;74.77;;
23802;SDS011;12082;51.786;6.018;2023-05-29T04:44:31;79.87;;;73.80;;
23802;SDS011;12082;51.786;6.018;2023-05-29T04:46:57;78.03;;;73.20;;
23802;SDS011;12082;51.786;6.018;2023-05-29T04:49:23;78.57;;;73.30;;
23802;SDS011;12082;51.786;6.018;2023-05-29T04:51:49;85.10;;;79.87;;
23802;SDS011;12082;51.786;6.018;2023-05-29T04:54:17;90.23;;;84.30;;
23802;SDS011;12082;51.786;6.018;2023-05-29T04:56:44;86.43;;;80.87;;
23802;SDS011;12082;51.786;6.018;2023-05-29T04:59:11;85.50;;;79.43;;
23802;SDS011;12082;51.786;6.018;2023-05-29T05:01:37;87.10;;;81.03;;
23802;SDS011;12082;51.786;6.018;2023-05-29T05:04:02;96.83;;;90.60;;
23802;SDS011;12082;51.786;6.018;2023-05-29T05:06:28;103.97;;;96.93;;
23802;SDS011;12082;51.786;6.018;2023-05-29T05:08:54;92.63;;;86.90;;
23802;SDS011;12082;51.786;6.018;2023-05-29T05:11:21;91.20;;;85.33;;
23802;SDS011;12082;51.786;6.018;2023-05-29T05:13:47;89.53;;;83.93;;
23802;SDS011;12082;51.786;6.018;2023-05-29T05:16:13;90.97;;;84.90;;
23802;SDS011;12082;51.786;6.018;2023-05-29T05:18:39;86.00;;;80.37;;
23802;SDS011;12082;51.786;6.018;2023-05-29T05:21:04;82.80;;;76.90;;
23802;SDS011;12082;51.786;6.018;2023-05-29T05:23:30;82.37;;;77.43;;
23802;SDS011;12082;51.786;6.018;2023-05-29T05:25:56;78.70;;;74.30;;
23802;SDS011;12082;51.786;6.018;2023-05-29T05:28:22;88.03;;;82.10;;
23802;SDS011;12082;51.786;6.018;2023-05-29T05:30:48;85.93;;;80.37;;
23802;SDS011;12082;51.786;6.018;2023-05-29T05:33:13;93.03;;;87.33;;
23802;SDS011;12082;51.786;6.018;2023-05-29T05:35:39;91.83;;;85.67;;
23802;SDS011;12082;51.786;6.018;2023-05-29T05:38:04;90.00;;;84.40;;
23802;SDS011;12082;51.786;6.018;2023-05-29T05:40:31;87.97;;;82.10;;
23802;SDS011;12082;51.786;6.018;2023-05-29T05:42:57;91.33;;;85.67;;
23802;SDS011;12082;51.786;6.018;2023-05-29T05:45:22;115.00;;;108.60;;
23802;SDS011;12082;51.786;6.018;2023-05-29T05:47:48;116.13;;;109.10;;
23802;SDS011;12082;51.786;6.018;2023-05-29T05:50:14;117.83;;;110.63;;
23802;SDS011;12082;51.786;6.018;2023-05-29T05:52:40;95.00;;;89.57;;
23802;SDS011;12082;51.786;6.018;2023-05-29T05:55:05;71.20;;;66.20;;
23802;SDS011;12082;51.786;6.018;2023-05-29T05:57:32;53.73;;;49.27;;
23802;SDS011;12082;51.786;6.018;2023-05-29T05:59:59;38.07;;;34.47;;
23802;SDS011;12082;51.786;6.018;2023-05-29T06:02:25;32.37;;;29.50;;
23802;SDS011;12082;51.786;6.018;2023-05-29T06:04:51;39.57;;;36.67;;
23802;SDS011;12082;51.786;6.018;2023-05-29T06:07:16;37.67;;;34.30;;
23802;SDS011;12082;51.786;6.018;2023-05-29T06:09:43;37.43;;;34.63;;
23802;SDS011;12082;51.786;6.018;2023-05-29T06:12:08;33.97;;;30.80;;
23802;SDS011;12082;51.786;6.018;2023-05-29T06:14:34;41.73;;;38.23;;
23802;SDS011;12082;51.786;6.018;2023-05-29T06:17:00;45.13;;;41.93;;
23802;SDS011;12082;51.786;6.018;2023-05-29T06:19:26;31.20;;;28.37;;
23802;SDS011;12082;51.786;6.018;2023-05-29T06:21:52;36.83;;;33.37;;
23802;SDS011;12082;51.786;6.018;2023-05-29T06:24:17;28.83;;;25.80;;
23802;SDS011;12082;51.786;6.018;2023-05-29T06:26:43;28.63;;;25.93;;
23802;SDS011;12082;51.786;6.018;2023-05-29T06:29:08;22.50;;;20.10;;
23802;SDS011;12082;51.786;6.018;2023-05-29T06:31:34;28.67;;;22.23;;
23802;SDS011;12082;51.786;6.018;2023-05-29T06:34:00;21.33;;;19.47;;
23802;SDS011;12082;51.786;6.018;2023-05-29T06:36:26;19.70;;;17.67;;
23802;SDS011;12082;51.786;6.018;2023-05-29T06:38:51;17.53;;;15.90;;
23802;SDS011;12082;51.786;6.018;2023-05-29T06:41:18;16.43;;;13.80;;
23802;SDS011;12082;51.786;6.018;2023-05-29T06:43:43;16.07;;;13.47;;
23802;SDS011;12082;51.786;6.018;2023-05-29T06:46:09;16.20;;;12.50;;
23802;SDS011;12082;51.786;6.018;2023-05-29T06:48:35;18.20;;;14.10;;
23802;SDS011;12082;51.786;6.018;2023-05-29T06:51:01;15.90;;;14.50;;
23802;SDS011;12082;51.786;6.018;2023-05-29T06:53:34;16.67;;;14.90;;
23802;SDS011;12082;51.786;6.018;2023-05-29T06:56:03;17.27;;;13.00;;
23802;SDS011;12082;51.786;6.018;2023-05-29T06:58:30;16.90;;;14.07;;
23802;SDS011;12082;51.786;6.018;2023-05-29T07:00:56;17.30;;;12.73;;
23802;SDS011;12082;51.786;6.018;2023-05-29T07:03:22;17.00;;;12.40;;
23802;SDS011;12082;51.786;6.018;2023-05-29T07:05:48;15.87;;;11.47;;
23802;SDS011;12082;51.786;6.018;2023-05-29T07:08:14;15.80;;;10.97;;
23802;SDS011;12082;51.786;6.018;2023-05-29T07:10:40;17.60;;;11.83;;
23802;SDS011;12082;51.786;6.018;2023-05-29T07:13:05;15.77;;;9.83;;
23802;SDS011;12082;51.786;6.018;2023-05-29T07:15:31;16.67;;;9.80;;
23802;SDS011;12082;51.786;6.018;2023-05-29T07:17:57;15.40;;;9.40;;
23802;SDS011;12082;51.786;6.018;2023-05-29T07:20:22;14.70;;;8.53;;
23802;SDS011;12082;51.786;6.018;2023-05-29T07:22:48;14.87;;;8.10;;
23802;SDS011;12082;51.786;6.018;2023-05-29T07:25:14;11.33;;;7.50;;
23802;SDS011;12082;51.786;6.018;2023-05-29T07:27:39;16.37;;;7.53;;
23802;SDS011;12082;51.786;6.018;2023-05-29T07:30:05;15.43;;;7.40;;
23802;SDS011;12082;51.786;6.018;2023-05-29T07:32:32;17.83;;;7.83;;
23802;SDS011;12082;51.786;6.018;2023-05-29T07:34:57;16.73;;;8.07;;
23802;SDS011;12082;51.786;6.018;2023-05-29T07:37:23;16.20;;;7.00;;
23802;SDS011;12082;51.786;6.018;2023-05-29T07:39:48;14.33;;;8.20;;
23802;SDS011;12082;51.786;6.018;2023-05-29T07:42:14;12.30;;;7.67;;
23802;SDS011;12082;51.786;6.018;2023-05-29T07:44:40;9.43;;;6.53;;
23802;SDS011;12082;51.786;6.018;2023-05-29T07:47:08;11.40;;;7.43;;
23802;SDS011;12082;51.786;6.018;2023-05-29T07:49:34;11.90;;;6.63;;
23802;SDS011;12082;51.786;6.018;2023-05-29T07:52:01;13.10;;;6.63;;
23802;SDS011;12082;51.786;6.018;2023-05-29T07:54:27;17.03;;;5.93;;
23802;SDS011;12082;51.786;6.018;2023-05-29T07:56:52;13.60;;;6.60;;
23802;SDS011;12082;51.786;6.018;2023-05-29T07:59:18;13.20;;;7.63;;
23802;SDS011;12082;51.786;6.018;2023-05-29T08:01:43;16.37;;;6.63;;
23802;SDS011;12082;51.786;6.018;2023-05-29T08:04:09;14.83;;;8.07;;
23802;SDS011;12082;51.786;6.018;2023-05-29T08:06:35;20.10;;;7.73;;
23802;SDS011;12082;51.786;6.018;2023-05-29T08:09:01;14.57;;;6.73;;
23802;SDS011;12082;51.786;6.018;2023-05-29T08:11:28;9.90;;;6.57;;
23802;SDS011;12082;51.786;6.018;2023-05-29T08:13:54;11.23;;;7.23;;
23802;SDS011;12082;51.786;6.018;2023-05-29T08:16:19;20.03;;;7.03;;
23802;SDS011;12082;51.786;6.018;2023-05-29T08:18:47;13.13;;;7.43;;
23802;SDS011;12082;51.786;6.018;2023-05-29T08:21:12;12.07;;;6.90;;
23802;SDS011;12082;51.786;6.018;2023-05-29T08:23:38;11.67;;;6.77;;
23802;SDS011;12082;51.786;6.018;2023-05-29T08:26:05;14.27;;;8.17;;
23802;SDS011;12082;51.786;6.018;2023-05-29T08:28:30;13.33;;;7.80;;
23802;SDS011;12082;51.786;6.018;2023-05-29T08:30:56;11.77;;;7.57;;
23802;SDS011;12082;51.786;6.018;2023-05-29T08:33:21;14.07;;;6.67;;
23802;SDS011;12082;51.786;6.018;2023-05-29T08:35:47;11.23;;;6.93;;
23802;SDS011;12082;51.786;6.018;2023-05-29T08:38:13;14.13;;;7.20;;
23802;SDS011;12082;51.786;6.018;2023-05-29T08:40:38;13.40;;;6.73;;
23802;SDS011;12082;51.786;6.018;2023-05-29T08:46:06;12.50;;;7.00;;
23802;SDS011;12082;51.786;6.018;2023-05-29T08:48:32;10.10;;;7.00;;
23802;SDS011;12082;51.786;6.018;2023-05-29T08:51:01;12.60;;;7.13;;
23802;SDS011;12082;51.786;6.018;2023-05-29T08:53:28;12.13;;;7.50;;
23802;SDS011;12082;51.786;6.018;2023-05-29T08:55:56;12.63;;;7.77;;
23802;SDS011;12082;51.786;6.018;2023-05-29T08:58:23;12.83;;;7.40;;
23802;SDS011;12082;51.786;6.018;2023-05-29T09:00:49;15.80;;;7.93;;
23802;SDS011;12082;51.786;6.018;2023-05-29T09:03:16;14.97;;;7.70;;
23802;SDS011;12082;51.786;6.018;2023-05-29T09:05:42;10.93;;;7.53;;
23802;SDS011;12082;51.786;6.018;2023-05-29T09:08:09;15.70;;;8.37;;
23802;SDS011;12082;51.786;6.018;2023-05-29T09:10:36;11.13;;;7.47;;
23802;SDS011;12082;51.786;6.018;2023-05-29T09:13:06;11.30;;;7.27;;
23802;SDS011;12082;51.786;6.018;2023-05-29T09:15:34;14.57;;;7.47;;
23802;SDS011;12082;51.786;6.018;2023-05-29T09:17:59;9.17;;;7.77;;
23802;SDS011;12082;51.786;6.018;2023-05-29T09:20:25;13.83;;;7.90;;
23802;SDS011;12082;51.786;6.018;2023-05-29T09:23:02;14.47;;;7.77;;
23802;SDS011;12082;51.786;6.018;2023-05-29T09:25:30;15.87;;;7.80;;
23802;SDS011;12082;51.786;6.018;2023-05-29T09:30:41;11.43;;;7.57;;
23802;SDS011;12082;51.786;6.018;2023-05-29T09:33:11;17.83;;;7.83;;
23802;SDS011;12082;51.786;6.018;2023-05-29T09:35:41;10.70;;;7.47;;
23802;SDS011;12082;51.786;6.018;2023-05-29T09:38:08;13.73;;;8.70;;
23802;SDS011;12082;51.786;6.018;2023-05-29T09:40:36;9.87;;;7.33;;
23802;SDS011;12082;51.786;6.018;2023-05-29T09:43:08;13.60;;;7.80;;
23802;SDS011;12082;51.786;6.018;2023-05-29T09:45:39;11.20;;;7.33;;
23802;SDS011;12082;51.786;6.018;2023-05-29T09:48:06;13.10;;;7.57;;
23802;SDS011;12082;51.786;6.018;2023-05-29T09:50:33;10.97;;;7.60;;
23802;SDS011;12082;51.786;6.018;2023-05-29T09:52:59;10.73;;;7.57;;
23802;SDS011;12082;51.786;6.018;2023-05-29T09:55:26;18.47;;;8.13;;
23802;SDS011;12082;51.786;6.018;2023-05-29T09:57:53;14.27;;;9.20;;
23802;SDS011;12082;51.786;6.018;2023-05-29T10:00:20;14.67;;;8.30;;
23802;SDS011;12082;51.786;6.018;2023-05-29T10:02:46;14.63;;;8.37;;
23802;SDS011;12082;51.786;6.018;2023-05-29T10:05:13;17.37;;;8.10;;
23802;SDS011;12082;51.786;6.018;2023-05-29T10:07:42;11.33;;;7.53;;
23802;SDS011;12082;51.786;6.018;2023-05-29T10:10:11;13.00;;;8.70;;
23802;SDS011;12082;51.786;6.018;2023-05-29T10:12:38;15.50;;;7.77;;
23802;SDS011;12082;51.786;6.018;2023-05-29T10:15:11;15.17;;;7.80;;
23802;SDS011;12082;51.786;6.018;2023-05-29T10:17:38;11.27;;;8.03;;
23802;SDS011;12082;51.786;6.018;2023-05-29T10:20:09;14.13;;;8.50;;
23802;SDS011;12082;51.786;6.018;2023-05-29T10:22:39;20.37;;;8.07;;
23802;SDS011;12082;51.786;6.018;2023-05-29T10:25:10;14.47;;;8.00;;
23802;SDS011;12082;51.786;6.018;2023-05-29T10:27:37;11.83;;;7.77;;
23802;SDS011;12082;51.786;6.018;2023-05-29T10:30:10;15.23;;;9.57;;
23802;SDS011;12082;51.786;6.018;2023-05-29T10:32:52;11.73;;;8.57;;
23802;SDS011;12082;51.786;6.018;2023-05-29T10:35:36;11.63;;;7.73;;
23802;SDS011;12082;51.786;6.018;2023-05-29T10:38:11;8.90;;;8.00;;
23802;SDS011;12082;51.786;6.018;2023-05-29T10:40:40;9.00;;;8.00;;
23802;SDS011;12082;51.786;6.018;2023-05-29T10:43:05;11.30;;;7.37;;
23802;SDS011;12082;51.786;6.018;2023-05-29T10:50:35;11.77;;;7.77;;
23802;SDS011;12082;51.786;6.018;2023-05-29T10:53:01;11.80;;;8.10;;
23802;SDS011;12082;51.786;6.018;2023-05-29T10:55:33;9.23;;;7.57;;
23802;SDS011;12082;51.786;6.018;2023-05-29T10:58:04;14.53;;;7.73;;
23802;SDS011;12082;51.786;6.018;2023-05-29T11:00:30;11.27;;;8.33;;
23802;SDS011;12082;51.786;6.018;2023-05-29T11:02:55;8.63;;;7.63;;
23802;SDS011;12082;51.786;6.018;2023-05-29T11:05:22;12.77;;;8.30;;
23802;SDS011;12082;51.786;6.018;2023-05-29T11:07:51;9.33;;;7.53;;
23802;SDS011;12082;51.786;6.018;2023-05-29T11:16:35;13.97;;;8.50;;
23802;SDS011;12082;51.786;6.018;2023-05-29T11:19:05;19.57;;;8.67;;
23802;SDS011;12082;51.786;6.018;2023-05-29T11:24:18;14.63;;;9.13;;
23802;SDS011;12082;51.786;6.018;2023-05-29T11:26:46;14.97;;;8.50;;
23802;SDS011;12082;51.786;6.018;2023-05-29T11:29:12;15.07;;;9.63;;
23802;SDS011;12082;51.786;6.018;2023-05-29T11:31:38;9.47;;;8.20;;
23802;SDS011;12082;51.786;6.018;2023-05-29T11:34:05;14.67;;;8.13;;
23802;SDS011;12082;51.786;6.018;2023-05-29T11:36:38;11.30;;;7.60;;
23802;SDS011;12082;51.786;6.018;2023-05-29T11:39:04;17.50;;;8.30;;
23802;SDS011;12082;51.786;6.018;2023-05-29T11:41:30;9.33;;;7.17;;
23802;SDS011;12082;51.786;6.018;2023-05-29T11:44:00;8.07;;;7.30;;
23802;SDS011;12082;51.786;6.018;2023-05-29T11:46:30;9.17;;;6.97;;
23802;SDS011;12082;51.786;6.018;2023-05-29T11:48:57;11.73;;;7.30;;
23802;SDS011;12082;51.786;6.018;2023-05-29T11:51:23;12.27;;;7.47;;
23802;SDS011;12082;51.786;6.018;2023-05-29T11:53:49;12.50;;;7.30;;
23802;SDS011;12082;51.786;6.018;2023-05-29T11:56:18;16.07;;;6.90;;
23802;SDS011;12082;51.786;6.018;2023-05-29T11:58:44;13.63;;;7.13;;
23802;SDS011;12082;51.786;6.018;2023-05-29T12:01:10;7.67;;;6.20;;
23802;SDS011;12082;51.786;6.018;2023-05-29T12:03:42;11.17;;;6.70;;
23802;SDS011;12082;51.786;6.018;2023-05-29T12:06:08;12.63;;;6.97;;
23802;SDS011;12082;51.786;6.018;2023-05-29T12:08:36;11.97;;;8.03;;
23802;SDS011;12082;51.786;6.018;2023-05-29T12:11:02;10.57;;;6.80;;
23802;SDS011;12082;51.786;6.018;2023-05-29T12:13:28;7.33;;;6.50;;
23802;SDS011;12082;51.786;6.018;2023-05-29T12:16:03;12.03;;;7.10;;
23802;SDS011;12082;51.786;6.018;2023-05-29T12:18:30;13.80;;;7.00;;
23802;SDS011;12082;51.786;6.018;2023-05-29T12:21:02;9.20;;;7.10;;
23802;SDS011;12082;51.786;6.018;2023-05-29T12:23:29;12.57;;;7.10;;
23802;SDS011;12082;51.786;6.018;2023-05-29T12:25:54;16.20;;;7.40;;
23802;SDS011;12082;51.786;6.018;2023-05-29T12:28:21;13.93;;;7.10;;
23802;SDS011;12082;51.786;6.018;2023-05-29T12:30:47;9.10;;;7.27;;
23802;SDS011;12082;51.786;6.018;2023-05-29T12:33:27;9.20;;;6.70;;
23802;SDS011;12082;51.786;6.018;2023-05-29T12:36:00;16.10;;;7.47;;
23802;SDS011;12082;51.786;6.018;2023-05-29T12:38:29;15.73;;;7.13;;
23802;SDS011;12082;51.786;6.018;2023-05-29T12:40:55;18.47;;;6.93;;
23802;SDS011;12082;51.786;6.018;2023-05-29T12:43:21;11.50;;;6.97;;
23802;SDS011;12082;51.786;6.018;2023-05-29T12:45:47;12.70;;;6.77;;
23802;SDS011;12082;51.786;6.018;2023-05-29T12:48:21;10.37;;;6.80;;
23802;SDS011;12082;51.786;6.018;2023-05-29T12:50:51;10.17;;;6.47;;
23802;SDS011;12082;51.786;6.018;2023-05-29T12:53:17;15.80;;;6.50;;
23802;SDS011;12082;51.786;6.018;2023-05-29T12:55:43;10.33;;;7.53;;
23802;SDS011;12082;51.786;6.018;2023-05-29T12:58:10;10.50;;;6.87;;
23802;SDS011;12082;51.786;6.018;2023-05-29T13:00:40;13.30;;;7.40;;
23802;SDS011;12082;51.786;6.018;2023-05-29T13:03:07;11.90;;;7.00;;
23802;SDS011;12082;51.786;6.018;2023-05-29T13:05:34;9.23;;;6.93;;
23802;SDS011;12082;51.786;6.018;2023-05-29T13:08:00;15.63;;;7.23;;
23802;SDS011;12082;51.786;6.018;2023-05-29T13:10:26;20.17;;;7.07;;
23802;SDS011;12082;51.786;6.018;2023-05-29T13:12:53;13.37;;;7.10;;
23802;SDS011;12082;51.786;6.018;2023-05-29T13:15:22;18.07;;;6.87;;
23802;SDS011;12082;51.786;6.018;2023-05-29T13:17:49;13.37;;;6.60;;
23802;SDS011;12082;51.786;6.018;2023-05-29T13:20:15;8.93;;;6.57;;
23802;SDS011;12082;51.786;6.018;2023-05-29T13:22:42;6.90;;;6.20;;
23802;SDS011;12082;51.786;6.018;2023-05-29T13:25:11;11.77;;;6.63;;
23802;SDS011;12082;51.786;6.018;2023-05-29T13:27:39;12.67;;;6.70;;
23802;SDS011;12082;51.786;6.018;2023-05-29T13:30:08;13.97;;;7.03;;
23802;SDS011;12082;51.786;6.018;2023-05-29T13:32:34;11.77;;;6.80;;
23802;SDS011;12082;51.786;6.018;2023-05-29T13:35:00;11.47;;;7.20;;
23802;SDS011;12082;51.786;6.018;2023-05-29T13:37:26;13.97;;;7.70;;
23802;SDS011;12082;51.786;6.018;2023-05-29T13:39:52;16.70;;;7.00;;
23802;SDS011;12082;51.786;6.018;2023-05-29T13:42:19;12.37;;;7.70;;
23802;SDS011;12082;51.786;6.018;2023-05-29T13:44:45;16.60;;;7.53;;
23802;SDS011;12082;51.786;6.018;2023-05-29T13:47:12;14.93;;;7.13;;
23802;SDS011;12082;51.786;6.018;2023-05-29T13:49:38;14.23;;;7.33;;
23802;SDS011;12082;51.786;6.018;2023-05-29T13:52:04;12.07;;;7.03;;
23802;SDS011;12082;51.786;6.018;2023-05-29T13:54:30;13.47;;;7.13;;
23802;SDS011;12082;51.786;6.018;2023-05-29T13:57:00;17.70;;;8.10;;
23802;SDS011;12082;51.786;6.018;2023-05-29T13:59:27;11.10;;;7.40;;
23802;SDS011;12082;51.786;6.018;2023-05-29T14:01:52;12.87;;;6.60;;
23802;SDS011;12082;51.786;6.018;2023-05-29T14:04:18;10.57;;;6.40;;
23802;SDS011;12082;51.786;6.018;2023-05-29T14:06:43;10.13;;;6.80;;
23802;SDS011;12082;51.786;6.018;2023-05-29T14:09:10;10.73;;;6.70;;
23802;SDS011;12082;51.786;6.018;2023-05-29T14:11:36;11.00;;;6.93;;
23802;SDS011;12082;51.786;6.018;2023-05-29T14:14:02;16.03;;;7.17;;
23802;SDS011;12082;51.786;6.018;2023-05-29T14:16:28;15.40;;;6.93;;
23802;SDS011;12082;51.786;6.018;2023-05-29T14:18:54;12.33;;;6.47;;
23802;SDS011;12082;51.786;6.018;2023-05-29T14:21:19;12.87;;;7.17;;
23802;SDS011;12082;51.786;6.018;2023-05-29T14:23:46;13.30;;;7.07;;
23802;SDS011;12082;51.786;6.018;2023-05-29T14:26:11;11.80;;;7.27;;
23802;SDS011;12082;51.786;6.018;2023-05-29T14:28:37;17.33;;;7.73;;
23802;SDS011;12082;51.786;6.018;2023-05-29T14:31:04;13.77;;;7.03;;
23802;SDS011;12082;51.786;6.018;2023-05-29T14:33:30;10.13;;;7.00;;
23802;SDS011;12082;51.786;6.018;2023-05-29T14:35:56;14.67;;;6.93;;
23802;SDS011;12082;51.786;6.018;2023-05-29T14:38:23;12.73;;;7.00;;
23802;SDS011;12082;51.786;6.018;2023-05-29T14:40:49;10.67;;;7.17;;
23802;SDS011;12082;51.786;6.018;2023-05-29T14:43:15;9.00;;;7.20;;
23802;SDS011;12082;51.786;6.018;2023-05-29T14:45:40;11.90;;;6.33;;
23802;SDS011;12082;51.786;6.018;2023-05-29T14:48:06;12.47;;;7.43;;
23802;SDS011;12082;51.786;6.018;2023-05-29T14:50:32;12.50;;;6.80;;
23802;SDS011;12082;51.786;6.018;2023-05-29T14:52:57;11.27;;;6.80;;
23802;SDS011;12082;51.786;6.018;2023-05-29T14:55:23;15.20;;;7.53;;